Time;durP1;ratioP1;P1;durP2;ratioP2;P2;SDS_P1;SDS_P2;PMS_P1;PMS_P2;Temp;Humidity;BMP_temperature;BMP_pressure;BME280_temperature;BME280_humidity;BME280_pressure;Samples;Min_cycle;Max_cycle;Signal;HPM_P1;HPM_P2
2022/01/05 00:01:40;;;;;;;0.63;0.52;;;;;;;;;;5046131;28;20363;-65
2022/01/05 00:04:06;;;;;;;0.65;0.60;;;;;;;;;;5025737;28;20048;-73
2022/01/05 00:06:32;;;;;;;0.55;0.55;;;;;;;;;;5060681;28;20040;-66
2022/01/05 00:08:58;;;;;;;1.80;0.40;;;;;;;;;;5045197;28;20040;-66
2022/01/05 00:11:24;;;;;;;0.57;0.57;;;;;;;;;;5021423;28;20517;-66
2022/01/05 00:13:50;;;;;;;0.70;0.50;;;;;;;;;;5026273;28;20132;-66
2022/01/05 00:16:16;;;;;;;0.40;0.40;;;;;;;;;;5030752;28;20053;-68
2022/01/05 00:18:42;;;;;;;0.40;0.40;;;;;;;;;;5050635;28;20098;-67
2022/01/05 00:21:09;;;;;;;0.40;0.40;;;;;;;;;;5032610;28;20040;-67
2022/01/05 00:23:35;;;;;;;1.48;0.40;;;;;;;;;;5031955;28;20206;-67
2022/01/05 00:26:03;;;;;;;0.20;0.20;;;;;;;;;;5050317;28;20049;-67
2022/01/05 00:28:30;;;;;;;1.17;0.40;;;;;;;;;;5055531;28;20499;-68
2022/01/05 00:30:56;;;;;;;0.30;0.30;;;;;;;;;;5049997;28;20136;-66
2022/01/05 00:33:22;;;;;;;2.92;0.50;;;;;;;;;;5025493;28;20049;-67
2022/01/05 00:35:49;;;;;;;1.02;0.47;;;;;;;;;;5052377;28;20051;-66
2022/01/05 00:38:15;;;;;;;2.92;0.40;;;;;;;;;;5049962;28;20045;-65
2022/01/05 00:40:41;;;;;;;0.55;0.30;;;;;;;;;;5029080;28;20041;-65
2022/01/05 00:43:08;;;;;;;1.85;0.40;;;;;;;;;;5051015;28;20045;-65
2022/01/05 00:45:34;;;;;;;0.50;0.43;;;;;;;;;;5008013;28;20131;-66
2022/01/05 00:48:00;;;;;;;4.88;0.57;;;;;;;;;;5053849;28;20084;-65
2022/01/05 00:50:26;;;;;;;3.13;0.55;;;;;;;;;;5032598;28;20045;-66
2022/01/05 00:52:55;;;;;;;5.53;0.40;;;;;;;;;;5030441;28;20110;-66
2022/01/05 00:55:22;;;;;;;0.90;0.22;;;;;;;;;;5031561;28;20037;-66
2022/01/05 00:57:48;;;;;;;0.85;0.30;;;;;;;;;;5050794;28;20129;-67
2022/01/05 01:00:14;;;;;;;0.77;0.25;;;;;;;;;;5048807;28;20100;-67
2022/01/05 01:02:42;;;;;;;1.08;0.20;;;;;;;;;;5029815;28;20045;-65
2022/01/05 01:05:08;;;;;;;0.60;0.28;;;;;;;;;;5031392;28;20361;-66
2022/01/05 01:07:35;;;;;;;2.42;0.22;;;;;;;;;;5028559;28;20049;-65
2022/01/05 01:10:01;;;;;;;0.47;0.20;;;;;;;;;;5039125;28;20079;-66
2022/01/05 01:12:27;;;;;;;1.08;0.20;;;;;;;;;;5029446;28;20128;-66
2022/01/05 01:14:54;;;;;;;0.20;0.20;;;;;;;;;;5028732;28;20050;-66
2022/01/05 01:17:22;;;;;;;0.10;0.10;;;;;;;;;;5030295;28;20041;-66
2022/01/05 01:19:48;;;;;;;1.10;0.20;;;;;;;;;;5012524;28;20609;-65
2022/01/05 01:22:14;;;;;;;0.20;0.20;;;;;;;;;;5026900;28;20128;-67
2022/01/05 01:24:40;;;;;;;0.30;0.20;;;;;;;;;;5029547;28;20057;-67
2022/01/05 01:27:07;;;;;;;0.20;0.20;;;;;;;;;;5033366;28;20477;-66
2022/01/05 01:29:33;;;;;;;0.47;0.10;;;;;;;;;;5029793;28;20479;-67
2022/01/05 01:31:59;;;;;;;0.20;0.20;;;;;;;;;;5008548;28;20056;-66
2022/01/05 01:34:27;;;;;;;0.20;0.20;;;;;;;;;;5027583;28;20077;-67
2022/01/05 01:36:53;;;;;;;0.35;0.20;;;;;;;;;;5025696;28;20052;-66
2022/01/05 01:39:19;;;;;;;0.20;0.20;;;;;;;;;;5028126;28;20140;-66
2022/01/05 01:41:45;;;;;;;0.15;0.13;;;;;;;;;;5028420;28;20156;-66
2022/01/05 01:44:12;;;;;;;1.30;0.15;;;;;;;;;;5029940;28;20049;-65
2022/01/05 01:46:38;;;;;;;1.38;0.30;;;;;;;;;;5021026;28;20050;-67
2022/01/05 01:49:04;;;;;;;0.20;0.20;;;;;;;;;;5028911;28;20053;-66
2022/01/05 01:51:31;;;;;;;0.20;0.20;;;;;;;;;;5025647;28;20543;-67
2022/01/05 01:53:57;;;;;;;0.75;0.40;;;;;;;;;;5006667;28;20053;-65
2022/01/05 01:56:25;;;;;;;0.52;0.30;;;;;;;;;;5028502;28;20106;-65
2022/01/05 01:58:51;;;;;;;0.10;0.10;;;;;;;;;;5027744;28;20053;-65
2022/01/05 02:01:17;;;;;;;2.75;0.30;;;;;;;;;;5008572;28;20100;-66
2022/01/05 02:03:43;;;;;;;0.20;0.20;;;;;;;;;;5023187;28;20414;-66
2022/01/05 02:06:10;;;;;;;2.25;0.40;;;;;;;;;;5026169;28;20088;-66
2022/01/05 02:08:36;;;;;;;1.60;0.32;;;;;;;;;;5023606;28;20052;-65
2022/01/05 02:11:05;;;;;;;0.22;0.20;;;;;;;;;;5028942;28;20042;-71
2022/01/05 02:13:32;;;;;;;0.30;0.30;;;;;;;;;;5029591;28;20088;-66
2022/01/05 02:15:58;;;;;;;0.52;0.30;;;;;;;;;;5027799;28;20053;-67
2022/01/05 02:21:09;;;;;;;0.60;0.30;;;;;;;;;;5028459;28;20037;-66
2022/01/05 02:23:36;;;;;;;1.65;0.20;;;;;;;;;;5021122;28;20045;-66
2022/01/05 02:26:07;;;;;;;0.55;0.40;;;;;;;;;;5027167;28;20046;-66
2022/01/05 02:28:33;;;;;;;3.38;0.15;;;;;;;;;;5027450;28;20052;-66
2022/01/05 02:31:01;;;;;;;1.88;0.20;;;;;;;;;;5027737;28;20053;-66
2022/01/05 02:33:27;;;;;;;0.00;0.00;;;;;;;;;;5027710;28;20053;-66
2022/01/05 02:35:53;;;;;;;2.83;0.30;;;;;;;;;;5044970;28;20041;-66
2022/01/05 02:38:21;;;;;;;0.55;0.20;;;;;;;;;;5028590;28;20110;-67
2022/01/05 02:40:49;;;;;;;0.35;0.20;;;;;;;;;;5027626;28;20499;-66
2022/01/05 02:43:16;;;;;;;0.47;0.25;;;;;;;;;;5028134;28;20422;-66
2022/01/05 02:45:42;;;;;;;0.10;0.10;;;;;;;;;;5027313;28;20443;-65
2022/01/05 02:48:08;;;;;;;0.13;0.13;;;;;;;;;;5027322;28;20053;-66
2022/01/05 02:50:35;;;;;;;1.65;0.20;;;;;;;;;;5002914;28;20061;-66
2022/01/05 02:53:02;;;;;;;0.38;0.25;;;;;;;;;;5024925;28;20053;-67
2022/01/05 02:55:29;;;;;;;0.30;0.30;;;;;;;;;;5028590;28;20132;-65
2022/01/05 02:57:55;;;;;;;2.17;0.32;;;;;;;;;;5028138;28;20384;-66
2022/01/05 03:00:21;;;;;;;1.13;0.20;;;;;;;;;;5011602;28;20053;-66
2022/01/05 03:02:47;;;;;;;1.60;0.25;;;;;;;;;;5044225;28;20053;-66
2022/01/05 03:05:14;;;;;;;1.40;0.40;;;;;;;;;;5030879;28;20053;-66
2022/01/05 03:07:40;;;;;;;0.98;0.20;;;;;;;;;;5013799;28;20033;-67
2022/01/05 03:10:08;;;;;;;0.20;0.20;;;;;;;;;;5046286;28;20045;-66
2022/01/05 03:12:35;;;;;;;0.20;0.15;;;;;;;;;;5030265;28;20580;-65
2022/01/05 03:15:03;;;;;;;0.32;0.25;;;;;;;;;;5033520;28;20041;-65
2022/01/05 03:17:30;;;;;;;0.20;0.20;;;;;;;;;;5045806;28;20088;-65
2022/01/05 03:19:56;;;;;;;1.38;0.22;;;;;;;;;;5047043;28;20041;-66
2022/01/05 03:22:22;;;;;;;0.93;0.40;;;;;;;;;;5023123;28;20049;-66
2022/01/05 03:24:49;;;;;;;0.17;0.15;;;;;;;;;;5044183;28;20037;-65
2022/01/05 03:27:15;;;;;;;1.60;0.40;;;;;;;;;;5045235;28;20403;-66
2022/01/05 03:29:41;;;;;;;1.13;0.32;;;;;;;;;;5047071;28;20052;-66
2022/01/05 03:32:08;;;;;;;0.25;0.17;;;;;;;;;;5047467;28;20044;-67
2022/01/05 03:34:36;;;;;;;0.17;0.17;;;;;;;;;;5037551;28;20045;-65
2022/01/05 03:37:03;;;;;;;0.35;0.30;;;;;;;;;;5044153;28;20041;-68
2022/01/05 03:39:29;;;;;;;0.57;0.20;;;;;;;;;;5011735;28;20045;-67
2022/01/05 03:41:56;;;;;;;0.10;0.10;;;;;;;;;;5011838;28;20135;-67
2022/01/05 03:44:22;;;;;;;0.70;0.40;;;;;;;;;;5047181;28;20433;-66
2022/01/05 03:46:49;;;;;;;0.10;0.10;;;;;;;;;;5042286;28;20048;-68
2022/01/05 03:49:15;;;;;;;0.82;0.40;;;;;;;;;;5045847;28;20348;-65
2022/01/05 03:51:41;;;;;;;4.03;0.40;;;;;;;;;;5027566;28;20057;-65
2022/01/05 03:54:07;;;;;;;0.60;0.30;;;;;;;;;;5045945;28;20049;-65
2022/01/05 03:56:34;;;;;;;0.55;0.40;;;;;;;;;;5043493;28;20485;-66
2022/01/05 03:59:00;;;;;;;0.38;0.30;;;;;;;;;;5035849;28;20132;-67
2022/01/05 04:01:27;;;;;;;0.30;0.30;;;;;;;;;;5037256;28;20140;-66
2022/01/05 04:03:57;;;;;;;0.85;0.47;;;;;;;;;;5062852;28;20066;-67
2022/01/05 04:06:25;;;;;;;1.65;0.47;;;;;;;;;;5053436;28;20577;-66
2022/01/05 04:08:52;;;;;;;0.52;0.30;;;;;;;;;;5057085;28;20041;-67
2022/01/05 04:11:20;;;;;;;0.32;0.10;;;;;;;;;;5030001;28;20522;-68
2022/01/05 04:13:50;;;;;;;0.80;0.32;;;;;;;;;;5047884;28;20077;-67
2022/01/05 04:16:16;;;;;;;0.22;0.22;;;;;;;;;;5047077;28;20080;-67
2022/01/05 04:18:44;;;;;;;0.75;0.40;;;;;;;;;;5048895;28;20142;-68
2022/01/05 04:21:10;;;;;;;0.32;0.25;;;;;;;;;;5028566;28;20479;-66
2022/01/05 04:23:36;;;;;;;1.15;0.25;;;;;;;;;;5045229;28;20048;-65
2022/01/05 04:26:04;;;;;;;1.83;0.30;;;;;;;;;;5033332;28;20052;-66
2022/01/05 04:28:32;;;;;;;1.23;0.40;;;;;;;;;;5047089;28;20112;-67
2022/01/05 04:30:58;;;;;;;0.45;0.22;;;;;;;;;;5049193;28;20056;-67
2022/01/05 04:33:24;;;;;;;0.73;0.40;;;;;;;;;;5040800;28;20048;-66
2022/01/05 04:35:50;;;;;;;2.58;0.40;;;;;;;;;;5050292;28;20049;-66
2022/01/05 04:38:17;;;;;;;0.63;0.35;;;;;;;;;;5046803;28;20100;-66
2022/01/05 04:40:44;;;;;;;0.43;0.40;;;;;;;;;;5028491;28;20080;-67
2022/01/05 04:43:10;;;;;;;2.33;0.38;;;;;;;;;;5045153;28;20498;-68
2022/01/05 04:45:37;;;;;;;0.32;0.20;;;;;;;;;;5059275;28;20048;-67
2022/01/05 04:48:04;;;;;;;0.93;0.57;;;;;;;;;;5046632;28;20128;-66
2022/01/05 04:50:30;;;;;;;0.77;0.30;;;;;;;;;;5049310;28;20080;-66
2022/01/05 04:52:56;;;;;;;0.75;0.43;;;;;;;;;;5028953;28;20402;-66
2022/01/05 04:55:23;;;;;;;0.50;0.22;;;;;;;;;;5047903;28;20344;-66
2022/01/05 04:57:50;;;;;;;2.05;0.28;;;;;;;;;;5049635;28;20045;-67
2022/01/05 05:00:16;;;;;;;0.50;0.30;;;;;;;;;;5032216;28;20489;-67
2022/01/05 05:02:42;;;;;;;0.20;0.17;;;;;;;;;;5044416;28;20095;-64
2022/01/05 05:05:08;;;;;;;0.77;0.28;;;;;;;;;;5026890;28;20048;-67
2022/01/05 05:07:35;;;;;;;1.73;0.40;;;;;;;;;;5046707;28;20056;-66
2022/01/05 05:10:01;;;;;;;0.45;0.40;;;;;;;;;;5030102;28;20103;-66
2022/01/05 05:12:27;;;;;;;0.70;0.47;;;;;;;;;;5033391;28;20049;-67
2022/01/05 05:14:53;;;;;;;1.10;0.50;;;;;;;;;;5051437;28;20132;-67
2022/01/05 05:17:19;;;;;;;0.85;0.47;;;;;;;;;;5034088;28;20131;-66
2022/01/05 05:19:45;;;;;;;2.95;0.55;;;;;;;;;;5032821;28;20048;-68
2022/01/05 05:22:11;;;;;;;1.63;0.45;;;;;;;;;;5050638;28;20116;-66
2022/01/05 05:24:37;;;;;;;2.65;0.63;;;;;;;;;;5048488;28;20055;-67
2022/01/05 05:27:04;;;;;;;0.30;0.30;;;;;;;;;;5032564;28;20045;-66
2022/01/05 05:29:30;;;;;;;1.25;0.40;;;;;;;;;;5052668;28;20154;-66
2022/01/05 05:31:56;;;;;;;1.10;0.60;;;;;;;;;;5051149;28;20041;-65
2022/01/05 05:34:24;;;;;;;0.60;0.60;;;;;;;;;;5032748;28;20063;-67
2022/01/05 05:36:51;;;;;;;0.55;0.20;;;;;;;;;;5031502;28;20099;-67
2022/01/05 05:39:17;;;;;;;1.13;0.40;;;;;;;;;;5035777;28;20045;-69
2022/01/05 05:41:43;;;;;;;0.63;0.50;;;;;;;;;;5053907;28;20056;-65
2022/01/05 05:44:09;;;;;;;1.23;0.50;;;;;;;;;;5050431;28;20440;-69
2022/01/05 05:46:36;;;;;;;0.70;0.40;;;;;;;;;;5033493;28;20060;-65
2022/01/05 05:49:02;;;;;;;1.95;0.50;;;;;;;;;;5027203;28;20040;-66
2022/01/05 05:51:28;;;;;;;0.32;0.32;;;;;;;;;;5030590;28;20061;-67
2022/01/05 05:53:55;;;;;;;5.47;0.57;;;;;;;;;;5002856;28;20124;-66
2022/01/05 05:56:21;;;;;;;1.55;0.40;;;;;;;;;;4996568;28;20045;-67
2022/01/05 05:58:47;;;;;;;1.05;0.60;;;;;;;;;;5011011;28;20067;-67
2022/01/05 06:01:13;;;;;;;0.98;0.60;;;;;;;;;;5034401;28;20061;-65
2022/01/05 06:03:40;;;;;;;1.35;0.57;;;;;;;;;;5006366;28;20051;-66
2022/01/05 06:06:06;;;;;;;0.70;0.40;;;;;;;;;;5021245;28;20106;-68
2022/01/05 06:08:33;;;;;;;1.73;0.50;;;;;;;;;;5024129;28;20084;-68
2022/01/05 06:11:00;;;;;;;4.78;0.80;;;;;;;;;;5020820;28;20155;-66
2022/01/05 06:13:26;;;;;;;3.00;0.80;;;;;;;;;;5022868;28;20139;-65
2022/01/05 06:15:53;;;;;;;0.32;0.30;;;;;;;;;;5042097;28;20047;-67
2022/01/05 06:18:20;;;;;;;0.40;0.40;;;;;;;;;;5043326;28;20044;-67
2022/01/05 06:20:46;;;;;;;0.90;0.40;;;;;;;;;;5008695;28;20090;-68
2022/01/05 06:23:20;;;;;;;0.52;0.40;;;;;;;;;;5040622;28;20206;-66
2022/01/05 06:25:48;;;;;;;1.40;0.50;;;;;;;;;;5024043;28;20523;-67
2022/01/05 06:28:15;;;;;;;2.20;0.40;;;;;;;;;;5006316;28;20392;-67
2022/01/05 06:30:41;;;;;;;1.25;0.63;;;;;;;;;;5040522;28;20040;-66
2022/01/05 06:33:08;;;;;;;0.85;0.57;;;;;;;;;;5041020;28;20049;-66
2022/01/05 06:35:34;;;;;;;1.02;0.60;;;;;;;;;;5023079;28;20663;-67
2022/01/05 06:38:02;;;;;;;1.65;0.52;;;;;;;;;;5023632;28;20080;-67
2022/01/05 06:40:28;;;;;;;1.65;0.60;;;;;;;;;;5038731;28;20041;-67
2022/01/05 06:42:54;;;;;;;1.30;0.50;;;;;;;;;;5028751;28;20408;-66
2022/01/05 06:45:21;;;;;;;1.27;0.57;;;;;;;;;;5020469;28;20131;-66
2022/01/05 06:47:47;;;;;;;0.77;0.70;;;;;;;;;;5041271;28;20080;-66
2022/01/05 06:50:14;;;;;;;0.77;0.60;;;;;;;;;;5021456;28;20041;-66
2022/01/05 06:52:40;;;;;;;4.15;1.15;;;;;;;;;;5022760;28;20052;-66
2022/01/05 06:55:09;;;;;;;1.58;0.65;;;;;;;;;;5023766;28;20060;-67
2022/01/05 06:57:40;;;;;;;1.88;0.43;;;;;;;;;;5024928;28;20834;-67
2022/01/05 07:00:11;;;;;;;1.88;0.45;;;;;;;;;;5040258;28;20068;-67
2022/01/05 07:02:38;;;;;;;0.88;0.60;;;;;;;;;;5039221;28;20164;-67
2022/01/05 07:05:06;;;;;;;2.15;0.70;;;;;;;;;;5039886;28;20850;-68
2022/01/05 07:07:33;;;;;;;2.60;0.80;;;;;;;;;;5037482;28;20069;-70
2022/01/05 07:09:59;;;;;;;1.63;0.75;;;;;;;;;;5036628;28;20056;-66
2022/01/05 07:12:26;;;;;;;3.08;0.90;;;;;;;;;;5040063;28;20514;-70
2022/01/05 07:14:52;;;;;;;1.48;0.90;;;;;;;;;;5042553;28;20099;-66
2022/01/05 07:17:18;;;;;;;1.55;0.57;;;;;;;;;;5023823;28;20048;-66
2022/01/05 07:19:45;;;;;;;3.13;0.90;;;;;;;;;;5037538;28;20095;-67
2022/01/05 07:22:11;;;;;;;2.78;1.10;;;;;;;;;;5003382;28;20051;-67
2022/01/05 07:24:37;;;;;;;14.15;2.33;;;;;;;;;;5023035;28;20067;-66
2022/01/05 07:27:03;;;;;;;6.03;1.10;;;;;;;;;;5040284;28;20510;-68
2022/01/05 07:29:30;;;;;;;4.30;1.10;;;;;;;;;;5039100;28;20045;-68
2022/01/05 07:31:56;;;;;;;3.50;1.05;;;;;;;;;;5038572;28;20597;-66
2022/01/05 07:34:22;;;;;;;3.45;1.08;;;;;;;;;;5024231;28;20052;-66
2022/01/05 07:36:48;;;;;;;2.70;0.73;;;;;;;;;;5024940;28;20056;-72
2022/01/05 07:39:14;;;;;;;1.27;0.80;;;;;;;;;;5019580;28;20115;-71
2022/01/05 07:41:40;;;;;;;13.00;1.40;;;;;;;;;;5021007;28;20052;-72
2022/01/05 07:44:07;;;;;;;15.40;1.80;;;;;;;;;;5025211;28;20520;-72
2022/01/05 07:46:34;;;;;;;4.97;0.98;;;;;;;;;;5042121;28;20064;-73
2022/01/05 07:49:02;;;;;;;8.15;1.17;;;;;;;;;;5041040;28;20053;-73
2022/01/05 07:51:31;;;;;;;6.07;1.30;;;;;;;;;;5039303;28;20102;-71
2022/01/05 07:53:58;;;;;;;3.80;0.95;;;;;;;;;;5041934;28;20112;-74
2022/01/05 07:56:25;;;;;;;8.40;1.48;;;;;;;;;;5020683;28;20106;-73
2022/01/05 07:58:54;;;;;;;7.43;1.42;;;;;;;;;;5017155;28;20053;-73
2022/01/05 08:01:21;;;;;;;2.25;0.90;;;;;;;;;;5015301;28;20104;-72
2022/01/05 08:03:48;;;;;;;3.00;1.00;;;;;;;;;;5028568;28;20041;-76
2022/01/05 08:06:14;;;;;;;3.13;0.93;;;;;;;;;;5050096;28;20778;-76
2022/01/05 08:08:42;;;;;;;10.88;1.30;;;;;;;;;;5051757;28;20056;-75
2022/01/05 08:11:10;;;;;;;2.20;0.73;;;;;;;;;;5048797;28;20048;-74
2022/01/05 08:13:36;;;;;;;8.07;1.05;;;;;;;;;;5052905;28;20049;-75
2022/01/05 08:16:03;;;;;;;2.95;0.70;;;;;;;;;;5052762;28;20124;-72
2022/01/05 08:18:29;;;;;;;4.97;0.70;;;;;;;;;;5028128;28;20779;-74
2022/01/05 08:20:55;;;;;;;5.97;1.00;;;;;;;;;;5012792;28;20056;-75
2022/01/05 08:23:22;;;;;;;5.07;1.17;;;;;;;;;;5027750;28;20100;-77
2022/01/05 08:25:50;;;;;;;7.93;1.15;;;;;;;;;;5051403;28;20076;-77
2022/01/05 08:28:18;;;;;;;6.28;1.00;;;;;;;;;;5035990;28;20056;-74
2022/01/05 08:30:45;;;;;;;6.93;2.00;;;;;;;;;;5050615;28;20110;-73
2022/01/05 08:33:14;;;;;;;6.90;1.45;;;;;;;;;;5049172;28;20068;-77
2022/01/05 08:35:42;;;;;;;4.60;0.88;;;;;;;;;;5044992;28;20049;-77
2022/01/05 08:38:10;;;;;;;4.72;0.80;;;;;;;;;;5049559;28;20049;-76
2022/01/05 08:40:37;;;;;;;3.65;0.95;;;;;;;;;;5051446;28;20052;-76
2022/01/05 08:43:06;;;;;;;2.88;0.88;;;;;;;;;;5052042;28;20045;-75
2022/01/05 08:45:33;;;;;;;4.13;1.00;;;;;;;;;;5034759;28;20049;-73
2022/01/05 08:48:00;;;;;;;5.22;1.30;;;;;;;;;;5050367;28;20055;-75
2022/01/05 08:50:31;;;;;;;4.30;0.90;;;;;;;;;;5052819;28;20469;-77
2022/01/05 08:52:57;;;;;;;2.42;0.80;;;;;;;;;;5032141;28;20048;-74
2022/01/05 08:55:28;;;;;;;5.47;0.90;;;;;;;;;;5033988;28;20159;-76
2022/01/05 08:57:55;;;;;;;3.08;0.73;;;;;;;;;;5053602;28;20486;-74
2022/01/05 09:00:24;;;;;;;4.90;0.90;;;;;;;;;;5053644;28;20067;-74
2022/01/05 09:02:50;;;;;;;2.55;0.80;;;;;;;;;;5048399;28;20136;-78
2022/01/05 09:05:17;;;;;;;16.17;1.88;;;;;;;;;;5034200;28;20041;-77
2022/01/05 09:07:44;;;;;;;4.90;0.93;;;;;;;;;;5030197;28;20045;-74
2022/01/05 09:10:11;;;;;;;6.07;0.80;;;;;;;;;;5049871;28;20491;-73
2022/01/05 09:12:37;;;;;;;5.35;0.88;;;;;;;;;;5035933;28;20102;-75
2022/01/05 09:15:04;;;;;;;2.80;0.77;;;;;;;;;;5039705;28;20216;-75
2022/01/05 09:17:31;;;;;;;5.43;1.13;;;;;;;;;;5056769;28;20044;-76
2022/01/05 09:19:57;;;;;;;8.75;0.70;;;;;;;;;;5054246;28;20045;-74
2022/01/05 09:22:24;;;;;;;2.20;0.77;;;;;;;;;;5056629;28;20045;-74
2022/01/05 09:24:51;;;;;;;4.25;0.80;;;;;;;;;;5049268;28;20044;-70
2022/01/05 09:27:18;;;;;;;5.85;1.42;;;;;;;;;;5048700;28;20045;-77
2022/01/05 09:29:45;;;;;;;5.20;0.70;;;;;;;;;;5027921;28;20060;-74
2022/01/05 09:32:11;;;;;;;5.22;0.80;;;;;;;;;;5049562;28;20057;-76
2022/01/05 09:34:42;;;;;;;4.15;0.85;;;;;;;;;;5033912;28;20049;-78
2022/01/05 09:38:06;;;;;;;6.75;0.80;;;;;;;;;;5036988;28;20266;-76
2022/01/05 09:42:41;;;;;;;;;;;;;;;;;;5053407;28;20048;-78
2022/01/05 09:45:16;;;;;;;5.22;0.60;;;;;;;;;;5041016;28;20370;-75
2022/01/05 09:48:00;;;;;;;4.63;0.90;;;;;;;;;;5047984;28;20041;-72
2022/01/05 09:50:27;;;;;;;3.40;0.70;;;;;;;;;;5004080;28;20037;-75
2022/01/05 09:52:54;;;;;;;5.25;0.80;;;;;;;;;;5032244;28;20105;-75
2022/01/05 09:55:20;;;;;;;8.13;0.70;;;;;;;;;;5031351;28;20118;-77
2022/01/05 09:57:46;;;;;;;3.65;0.70;;;;;;;;;;5035862;28;20065;-76
2022/01/05 10:00:15;;;;;;;8.43;1.00;;;;;;;;;;5042666;28;20041;-72
2022/01/05 10:02:43;;;;;;;3.72;0.70;;;;;;;;;;5050795;28;20045;-77
2022/01/05 10:05:11;;;;;;;6.28;0.70;;;;;;;;;;5032394;28;21642;-70
2022/01/05 10:07:38;;;;;;;7.97;0.80;;;;;;;;;;5047056;28;20474;-72
2022/01/05 10:10:05;;;;;;;4.95;0.70;;;;;;;;;;5034282;28;20045;-74
2022/01/05 10:12:32;;;;;;;3.75;0.80;;;;;;;;;;5050943;28;20542;-72
2022/01/05 10:14:58;;;;;;;1.25;0.75;;;;;;;;;;5035280;28;20127;-73
2022/01/05 10:17:30;;;;;;;14.70;1.05;;;;;;;;;;5034792;28;20048;-77
2022/01/05 10:19:57;;;;;;;3.25;0.90;;;;;;;;;;5021273;28;20045;-81
2022/01/05 10:22:33;;;;;;;7.18;0.68;;;;;;;;;;5052216;28;20042;-78
2022/01/05 10:25:03;;;;;;;3.33;0.75;;;;;;;;;;5053746;28;20049;-71
2022/01/05 10:27:29;;;;;;;3.85;0.80;;;;;;;;;;5037211;28;20436;-76
2022/01/05 10:30:14;;;;;;;6.53;1.05;;;;;;;;;;5055550;28;20806;-72
2022/01/05 10:32:44;;;;;;;;;;;;;;;;;;5054643;28;20527;-77
2022/01/05 10:35:14;;;;;;;6.15;1.17;;;;;;;;;;5035277;28;20296;-74
2022/01/05 10:37:43;;;;;;;5.03;1.00;;;;;;;;;;5032280;28;20041;-75
2022/01/05 10:40:09;;;;;;;3.67;0.70;;;;;;;;;;5053634;28;20516;-73
2022/01/05 10:42:38;;;;;;;5.22;1.10;;;;;;;;;;5056789;28;20053;-72
2022/01/05 10:45:08;;;;;;;1.67;0.70;;;;;;;;;;5061465;28;20743;-79
2022/01/05 10:47:37;;;;;;;4.13;0.73;;;;;;;;;;5055556;28;20068;-75
2022/01/05 10:50:06;;;;;;;3.15;1.00;;;;;;;;;;5054755;28;20037;-71
2022/01/05 10:52:35;;;;;;;2.78;0.70;;;;;;;;;;5054000;28;20049;-77
2022/01/05 10:55:14;;;;;;;5.07;1.10;;;;;;;;;;5033068;28;20055;-77
2022/01/05 10:58:02;;;;;;;4.25;1.25;;;;;;;;;;5040949;28;20095;-73
2022/01/05 11:00:40;;;;;;;4.18;1.08;;;;;;;;;;5055688;28;20048;-73
2022/01/05 11:03:39;;;;;;;4.65;0.98;;;;;;;;;;5054721;28;20056;-74
2022/01/05 11:06:13;;;;;;;6.38;0.70;;;;;;;;;;5049411;28;20061;-74
2022/01/05 11:08:52;;;;;;;1.75;0.77;;;;;;;;;;5025402;28;20037;-73
2022/01/05 11:11:32;;;;;;;0.95;0.70;;;;;;;;;;5039351;28;20060;-76
2022/01/05 11:13:58;;;;;;;5.93;0.80;;;;;;;;;;5033200;28;20061;-75
2022/01/05 11:16:26;;;;;;;4.32;0.90;;;;;;;;;;5048990;28;20490;-71
2022/01/05 11:19:12;;;;;;;6.75;1.00;;;;;;;;;;5050255;28;20048;-73
2022/01/05 11:21:40;;;;;;;3.63;1.30;;;;;;;;;;5049297;28;20049;-73
2022/01/05 11:24:07;;;;;;;15.15;0.98;;;;;;;;;;5044742;28;20072;-76
2022/01/05 11:26:37;;;;;;;6.55;1.77;;;;;;;;;;5052545;28;20064;-75
2022/01/05 11:29:05;;;;;;;1.83;0.70;;;;;;;;;;5030971;28;20041;-75
2022/01/05 11:31:31;;;;;;;7.43;1.25;;;;;;;;;;5006300;28;20076;-77
2022/01/05 11:33:58;;;;;;;5.70;0.82;;;;;;;;;;5020767;28;20049;-77
2022/01/05 11:36:26;;;;;;;4.20;0.73;;;;;;;;;;5035306;28;20045;-76
2022/01/05 11:38:52;;;;;;;0.90;0.60;;;;;;;;;;5049164;28;20063;-74
2022/01/05 11:41:20;;;;;;;4.80;1.05;;;;;;;;;;5025248;28;20049;-72
2022/01/05 11:43:47;;;;;;;1.42;0.68;;;;;;;;;;4998574;28;20053;-75
2022/01/05 11:46:17;;;;;;;7.85;0.82;;;;;;;;;;5023491;28;20090;-79
2022/01/05 11:49:01;;;;;;;1.95;0.75;;;;;;;;;;5056726;28;20055;-76
2022/01/05 11:51:42;;;;;;;5.00;0.90;;;;;;;;;;5016167;28;20057;-74
2022/01/05 11:54:13;;;;;;;6.30;1.17;;;;;;;;;;5045896;28;20090;-74
2022/01/05 11:56:42;;;;;;;5.05;0.98;;;;;;;;;;5020101;28;20123;-70
2022/01/05 11:59:25;;;;;;;3.35;0.88;;;;;;;;;;5014171;28;20049;-73
2022/01/05 12:02:09;;;;;;;5.00;0.70;;;;;;;;;;5052188;28;20530;-71
2022/01/05 12:04:57;;;;;;;1.42;0.80;;;;;;;;;;5039599;28;20092;-72
2022/01/05 12:07:46;;;;;;;10.05;0.88;;;;;;;;;;5049685;28;20041;-70
2022/01/05 12:10:21;;;;;;;2.80;0.80;;;;;;;;;;5047968;28;20346;-75
2022/01/05 12:13:07;;;;;;;2.65;0.80;;;;;;;;;;5052382;28;20482;-75
2022/01/05 12:15:57;;;;;;;2.92;0.85;;;;;;;;;;4997365;28;20045;-74
2022/01/05 12:18:36;;;;;;;3.42;0.60;;;;;;;;;;5046751;28;20045;-75
2022/01/05 12:21:02;;;;;;;1.33;0.70;;;;;;;;;;5027151;28;20044;-74
2022/01/05 12:23:30;;;;;;;2.45;0.68;;;;;;;;;;5045158;28;20429;-73
2022/01/05 12:26:07;;;;;;;5.05;0.85;;;;;;;;;;5045228;28;20052;-73
2022/01/05 12:28:38;;;;;;;4.20;1.05;;;;;;;;;;5003835;28;20050;-73
2022/01/05 12:31:06;;;;;;;12.13;1.20;;;;;;;;;;5024754;28;20057;-74
2022/01/05 12:33:49;;;;;;;4.68;0.90;;;;;;;;;;5026709;28;20052;-73
2022/01/05 12:36:34;;;;;;;4.60;0.95;;;;;;;;;;5026680;28;20151;-75
2022/01/05 12:39:05;;;;;;;1.77;0.90;;;;;;;;;;5036869;28;20094;-73
2022/01/05 12:41:34;;;;;;;1.85;0.70;;;;;;;;;;5045270;28;20080;-76
2022/01/05 12:44:05;;;;;;;2.78;0.73;;;;;;;;;;5049829;28;20056;-75
2022/01/05 12:46:43;;;;;;;5.63;0.85;;;;;;;;;;5031812;28;20052;-76
2022/01/05 12:49:15;;;;;;;1.48;0.70;;;;;;;;;;5038035;28;20128;-74
2022/01/05 12:51:48;;;;;;;3.10;0.73;;;;;;;;;;5039266;28;20069;-76
2022/01/05 12:54:19;;;;;;;2.47;0.70;;;;;;;;;;5030508;28;20060;-73
2022/01/05 12:56:56;;;;;;;1.55;0.50;;;;;;;;;;5031419;28;20044;-73
2022/01/05 12:59:34;;;;;;;3.45;0.60;;;;;;;;;;5039656;28;20100;-75
2022/01/05 13:02:04;;;;;;;4.40;1.35;;;;;;;;;;5026219;28;20060;-74
2022/01/05 13:04:31;;;;;;;4.25;0.90;;;;;;;;;;5026451;28;20050;-75
2022/01/05 13:06:59;;;;;;;14.68;1.00;;;;;;;;;;5022804;28;20057;-72
2022/01/05 13:09:37;;;;;;;4.45;1.27;;;;;;;;;;5029626;28;20061;-79
2022/01/05 13:12:09;;;;;;;4.72;1.10;;;;;;;;;;5029510;28;20057;-77
2022/01/05 13:14:38;;;;;;;5.03;1.23;;;;;;;;;;5026358;28;20057;-77
2022/01/05 13:17:17;;;;;;;3.22;1.00;;;;;;;;;;5026919;28;20053;-74
2022/01/05 13:19:45;;;;;;;0.55;0.55;;;;;;;;;;5008583;28;20103;-72
2022/01/05 13:22:16;;;;;;;2.88;0.73;;;;;;;;;;5020117;28;20053;-71
2022/01/05 13:25:22;;;;;;;2.30;0.68;;;;;;;;;;5008438;28;20049;-72
2022/01/05 13:27:54;;;;;;;6.60;0.93;;;;;;;;;;5023056;28;20454;-73
2022/01/05 13:30:26;;;;;;;1.70;0.90;;;;;;;;;;5022081;28;20184;-73
2022/01/05 13:33:02;;;;;;;3.90;0.80;;;;;;;;;;5017603;28;20054;-74
2022/01/05 13:35:37;;;;;;;2.45;0.70;;;;;;;;;;5011180;28;20068;-72
2022/01/05 13:38:06;;;;;;;2.95;1.00;;;;;;;;;;5027203;28;20053;-71
2022/01/05 13:40:35;;;;;;;3.78;0.90;;;;;;;;;;5009005;28;20541;-73
2022/01/05 13:43:07;;;;;;;3.28;0.60;;;;;;;;;;5010879;28;20132;-72
2022/01/05 13:45:39;;;;;;;5.38;1.00;;;;;;;;;;5021861;28;20515;-71
2022/01/05 13:48:11;;;;;;;1.20;0.60;;;;;;;;;;5023589;28;20045;-73
2022/01/05 13:50:41;;;;;;;2.45;1.10;;;;;;;;;;5023124;28;20125;-72
2022/01/05 13:53:12;;;;;;;2.30;0.90;;;;;;;;;;5010006;28;20048;-70
2022/01/05 13:55:40;;;;;;;2.85;0.90;;;;;;;;;;5005991;28;20053;-72
2022/01/05 13:58:27;;;;;;;2.20;0.82;;;;;;;;;;5015472;28;20041;-70
2022/01/05 14:01:06;;;;;;;4.13;1.27;;;;;;;;;;5032797;28;20081;-72
2022/01/05 14:03:35;;;;;;;3.55;0.77;;;;;;;;;;5032639;28;20118;-73
2022/01/05 14:06:04;;;;;;;3.13;0.80;;;;;;;;;;5030215;28;20123;-71
2022/01/05 14:08:42;;;;;;;2.53;1.30;;;;;;;;;;5050173;28;20053;-69
2022/01/05 14:11:12;;;;;;;1.88;0.90;;;;;;;;;;5047184;28;20567;-71
2022/01/05 14:13:44;;;;;;;3.20;1.20;;;;;;;;;;5046783;28;20052;-70
2022/01/05 14:16:15;;;;;;;1.40;0.60;;;;;;;;;;5015630;28;20107;-73
2022/01/05 14:18:45;;;;;;;1.25;0.60;;;;;;;;;;5014650;28;20052;-73
2022/01/05 14:21:12;;;;;;;1.85;0.85;;;;;;;;;;5049582;28;20049;-76
2022/01/05 14:23:41;;;;;;;1.88;0.73;;;;;;;;;;5046288;28;20839;-73
2022/01/05 14:26:07;;;;;;;1.45;0.90;;;;;;;;;;5029221;28;20445;-73
2022/01/05 14:28:34;;;;;;;1.10;0.90;;;;;;;;;;5046361;28;20577;-74
2022/01/05 14:31:10;;;;;;;6.47;1.20;;;;;;;;;;5040524;28;20434;-74
2022/01/05 14:33:52;;;;;;;1.25;0.70;;;;;;;;;;5044762;28;20131;-74
2022/01/05 14:36:30;;;;;;;1.15;0.60;;;;;;;;;;5019679;28;20527;-74
2022/01/05 14:39:06;;;;;;;1.77;0.50;;;;;;;;;;5046672;28;20094;-75
2022/01/05 14:42:09;;;;;;;1.70;0.75;;;;;;;;;;5037295;28;20048;-74
2022/01/05 14:44:37;;;;;;;2.88;1.08;;;;;;;;;;5006285;28;20057;-74
2022/01/05 14:47:07;;;;;;;3.35;1.08;;;;;;;;;;5014379;28;20041;-72
2022/01/05 14:49:38;;;;;;;1.60;0.80;;;;;;;;;;5033722;28;20064;-74
2022/01/05 14:52:06;;;;;;;1.98;0.90;;;;;;;;;;5022166;28;20041;-73
2022/01/05 14:54:37;;;;;;;2.17;0.65;;;;;;;;;;5025549;28;20045;-72
2022/01/05 14:57:09;;;;;;;6.10;0.85;;;;;;;;;;5044118;28;20086;-71
2022/01/05 14:59:35;;;;;;;6.72;2.05;;;;;;;;;;5037259;28;20064;-73